sensor_id;sensor_type;location;lat;lon;timestamp;temperature;humidity
5779;DHT22;2916;49.798;10.022;2023-07-13T00:02:08;21.20;1.00
5779;DHT22;2916;49.798;10.022;2023-07-13T00:04:36;21.20;1.00
5779;DHT22;2916;49.798;10.022;2023-07-13T00:07:03;21.10;1.00
5779;DHT22;2916;49.798;10.022;2023-07-13T00:09:30;21.10;1.00
5779;DHT22;2916;49.798;10.022;2023-07-13T00:11:58;21.00;1.00
5779;DHT22;2916;49.798;10.022;2023-07-13T00:14:27;21.00;1.00
5779;DHT22;2916;49.798;10.022;2023-07-13T00:16:56;20.90;1.00
5779;DHT22;2916;49.798;10.022;2023-07-13T00:19:24;20.90;1.00
5779;DHT22;2916;49.798;10.022;2023-07-13T00:21:51;20.80;1.00
5779;DHT22;2916;49.798;10.022;2023-07-13T00:24:21;20.70;1.00
5779;DHT22;2916;49.798;10.022;2023-07-13T00:26:49;20.70;1.00
5779;DHT22;2916;49.798;10.022;2023-07-13T00:29:17;20.60;1.00
5779;DHT22;2916;49.798;10.022;2023-07-13T00:31:45;20.60;1.00
5779;DHT22;2916;49.798;10.022;2023-07-13T00:34:13;20.60;1.00
5779;DHT22;2916;49.798;10.022;2023-07-13T00:36:40;20.50;1.00
5779;DHT22;2916;49.798;10.022;2023-07-13T00:39:07;20.50;1.00
5779;DHT22;2916;49.798;10.022;2023-07-13T00:41:35;20.40;1.00
5779;DHT22;2916;49.798;10.022;2023-07-13T00:44:03;20.40;1.00
5779;DHT22;2916;49.798;10.022;2023-07-13T00:46:31;20.40;1.00
5779;DHT22;2916;49.798;10.022;2023-07-13T00:49:04;20.40;1.00
5779;DHT22;2916;49.798;10.022;2023-07-13T00:51:39;20.30;1.00
5779;DHT22;2916;49.798;10.022;2023-07-13T00:54:13;20.30;1.00
5779;DHT22;2916;49.798;10.022;2023-07-13T00:56:45;20.40;1.00
5779;DHT22;2916;49.798;10.022;2023-07-13T00:59:15;20.20;1.00
5779;DHT22;2916;49.798;10.022;2023-07-13T01:01:45;20.30;1.00
5779;DHT22;2916;49.798;10.022;2023-07-13T01:04:14;20.30;1.00
5779;DHT22;2916;49.798;10.022;2023-07-13T01:06:42;20.20;1.00
5779;DHT22;2916;49.798;10.022;2023-07-13T01:09:11;20.20;1.00
5779;DHT22;2916;49.798;10.022;2023-07-13T01:11:39;20.20;1.00
5779;DHT22;2916;49.798;10.022;2023-07-13T01:14:08;20.00;1.00
5779;DHT22;2916;49.798;10.022;2023-07-13T01:16:37;20.00;1.00
5779;DHT22;2916;49.798;10.022;2023-07-13T01:19:15;19.90;1.00
5779;DHT22;2916;49.798;10.022;2023-07-13T01:21:56;19.90;1.00
5779;DHT22;2916;49.798;10.022;2023-07-13T01:24:24;19.80;1.00
5779;DHT22;2916;49.798;10.022;2023-07-13T01:26:51;19.90;1.00
5779;DHT22;2916;49.798;10.022;2023-07-13T01:29:18;19.80;1.00
5779;DHT22;2916;49.798;10.022;2023-07-13T01:31:45;19.70;1.00
5779;DHT22;2916;49.798;10.022;2023-07-13T01:34:12;19.70;1.00
5779;DHT22;2916;49.798;10.022;2023-07-13T01:36:40;19.70;1.00
5779;DHT22;2916;49.798;10.022;2023-07-13T01:39:08;19.70;1.00
5779;DHT22;2916;49.798;10.022;2023-07-13T01:41:35;19.70;1.00
5779;DHT22;2916;49.798;10.022;2023-07-13T01:44:03;19.60;1.00
5779;DHT22;2916;49.798;10.022;2023-07-13T01:46:30;19.50;1.00
5779;DHT22;2916;49.798;10.022;2023-07-13T01:48:58;19.50;1.00
5779;DHT22;2916;49.798;10.022;2023-07-13T01:51:25;19.40;1.00
5779;DHT22;2916;49.798;10.022;2023-07-13T01:53:52;19.40;1.00
5779;DHT22;2916;49.798;10.022;2023-07-13T01:56:20;19.30;1.00
5779;DHT22;2916;49.798;10.022;2023-07-13T01:58:48;19.20;1.00
5779;DHT22;2916;49.798;10.022;2023-07-13T02:01:15;19.10;1.00
5779;DHT22;2916;49.798;10.022;2023-07-13T02:03:42;19.10;1.00
5779;DHT22;2916;49.798;10.022;2023-07-13T02:06:09;19.10;1.00
5779;DHT22;2916;49.798;10.022;2023-07-13T02:08:37;19.00;1.00
5779;DHT22;2916;49.798;10.022;2023-07-13T02:11:05;19.00;1.00
5779;DHT22;2916;49.798;10.022;2023-07-13T02:13:33;18.90;1.00
5779;DHT22;2916;49.798;10.022;2023-07-13T02:16:00;18.80;1.00
5779;DHT22;2916;49.798;10.022;2023-07-13T02:18:28;18.80;1.00
5779;DHT22;2916;49.798;10.022;2023-07-13T02:20:55;18.60;1.00
5779;DHT22;2916;49.798;10.022;2023-07-13T02:23:22;18.60;1.00
5779;DHT22;2916;49.798;10.022;2023-07-13T02:25:52;18.70;1.00
5779;DHT22;2916;49.798;10.022;2023-07-13T02:28:21;18.70;1.00
5779;DHT22;2916;49.798;10.022;2023-07-13T02:30:50;18.60;1.00
5779;DHT22;2916;49.798;10.022;2023-07-13T02:33:17;18.60;1.00
5779;DHT22;2916;49.798;10.022;2023-07-13T02:35:45;18.50;1.00
5779;DHT22;2916;49.798;10.022;2023-07-13T02:38:12;18.50;1.00
5779;DHT22;2916;49.798;10.022;2023-07-13T02:40:39;18.40;1.00
5779;DHT22;2916;49.798;10.022;2023-07-13T02:43:06;18.30;1.00
5779;DHT22;2916;49.798;10.022;2023-07-13T02:45:33;18.30;1.00
5779;DHT22;2916;49.798;10.022;2023-07-13T02:48:02;18.20;1.00
5779;DHT22;2916;49.798;10.022;2023-07-13T02:50:29;18.20;1.00
5779;DHT22;2916;49.798;10.022;2023-07-13T02:52:56;18.10;1.00
5779;DHT22;2916;49.798;10.022;2023-07-13T02:55:24;18.10;1.00
5779;DHT22;2916;49.798;10.022;2023-07-13T02:57:51;18.10;1.00
5779;DHT22;2916;49.798;10.022;2023-07-13T03:00:20;18.20;1.00
5779;DHT22;2916;49.798;10.022;2023-07-13T03:02:47;18.20;1.00
5779;DHT22;2916;49.798;10.022;2023-07-13T03:05:16;18.10;1.00
5779;DHT22;2916;49.798;10.022;2023-07-13T03:07:44;18.10;1.00
5779;DHT22;2916;49.798;10.022;2023-07-13T03:10:11;18.10;1.00
5779;DHT22;2916;49.798;10.022;2023-07-13T03:12:38;18.00;1.00
5779;DHT22;2916;49.798;10.022;2023-07-13T03:15:06;18.00;1.00
5779;DHT22;2916;49.798;10.022;2023-07-13T03:17:33;18.00;1.00
5779;DHT22;2916;49.798;10.022;2023-07-13T03:20:00;18.00;1.00
5779;DHT22;2916;49.798;10.022;2023-07-13T03:22:30;18.00;1.00
5779;DHT22;2916;49.798;10.022;2023-07-13T03:24:57;17.90;1.00
5779;DHT22;2916;49.798;10.022;2023-07-13T03:27:25;17.90;1.00
5779;DHT22;2916;49.798;10.022;2023-07-13T03:29:52;17.80;1.00
5779;DHT22;2916;49.798;10.022;2023-07-13T03:32:19;17.80;1.00
5779;DHT22;2916;49.798;10.022;2023-07-13T03:34:46;17.80;1.00
5779;DHT22;2916;49.798;10.022;2023-07-13T03:37:14;17.70;1.00
5779;DHT22;2916;49.798;10.022;2023-07-13T03:39:42;17.70;1.00
5779;DHT22;2916;49.798;10.022;2023-07-13T03:42:09;17.70;1.00
5779;DHT22;2916;49.798;10.022;2023-07-13T03:44:39;17.70;1.00
5779;DHT22;2916;49.798;10.022;2023-07-13T03:47:07;17.70;1.00
5779;DHT22;2916;49.798;10.022;2023-07-13T03:49:35;17.70;1.00
5779;DHT22;2916;49.798;10.022;2023-07-13T03:52:02;17.60;1.00
5779;DHT22;2916;49.798;10.022;2023-07-13T03:54:29;17.60;1.00
5779;DHT22;2916;49.798;10.022;2023-07-13T03:56:59;17.70;1.00
5779;DHT22;2916;49.798;10.022;2023-07-13T03:59:27;17.60;1.00
5779;DHT22;2916;49.798;10.022;2023-07-13T04:01:54;17.60;1.00
5779;DHT22;2916;49.798;10.022;2023-07-13T04:04:21;17.60;1.00
5779;DHT22;2916;49.798;10.022;2023-07-13T04:06:48;17.60;1.00
5779;DHT22;2916;49.798;10.022;2023-07-13T04:09:19;17.60;1.00
5779;DHT22;2916;49.798;10.022;2023-07-13T04:11:46;17.50;1.00
5779;DHT22;2916;49.798;10.022;2023-07-13T04:14:15;17.60;1.00
5779;DHT22;2916;49.798;10.022;2023-07-13T04:16:42;17.70;1.00
5779;DHT22;2916;49.798;10.022;2023-07-13T04:19:13;17.80;1.00
5779;DHT22;2916;49.798;10.022;2023-07-13T04:21:40;17.80;1.00
5779;DHT22;2916;49.798;10.022;2023-07-13T04:24:07;17.90;1.00
5779;DHT22;2916;49.798;10.022;2023-07-13T04:26:35;18.00;1.00
5779;DHT22;2916;49.798;10.022;2023-07-13T04:29:04;18.10;1.00
5779;DHT22;2916;49.798;10.022;2023-07-13T04:31:33;18.20;1.00
5779;DHT22;2916;49.798;10.022;2023-07-13T04:34:00;18.30;1.00
5779;DHT22;2916;49.798;10.022;2023-07-13T04:36:28;18.40;1.00
5779;DHT22;2916;49.798;10.022;2023-07-13T04:38:55;18.70;1.00
5779;DHT22;2916;49.798;10.022;2023-07-13T04:41:22;19.00;1.00
5779;DHT22;2916;49.798;10.022;2023-07-13T04:43:50;19.20;1.00
5779;DHT22;2916;49.798;10.022;2023-07-13T04:46:17;19.30;1.00
5779;DHT22;2916;49.798;10.022;2023-07-13T04:48:48;19.20;1.00
5779;DHT22;2916;49.798;10.022;2023-07-13T04:51:18;19.30;1.00
5779;DHT22;2916;49.798;10.022;2023-07-13T04:53:46;19.20;1.00
5779;DHT22;2916;49.798;10.022;2023-07-13T04:56:13;19.30;1.00
5779;DHT22;2916;49.798;10.022;2023-07-13T04:58:40;19.20;1.00
5779;DHT22;2916;49.798;10.022;2023-07-13T05:01:09;19.20;1.00
5779;DHT22;2916;49.798;10.022;2023-07-13T05:03:36;19.10;1.00
5779;DHT22;2916;49.798;10.022;2023-07-13T05:06:07;19.10;1.00
5779;DHT22;2916;49.798;10.022;2023-07-13T05:08:36;19.10;1.00
5779;DHT22;2916;49.798;10.022;2023-07-13T05:11:04;19.10;1.00
5779;DHT22;2916;49.798;10.022;2023-07-13T05:13:32;19.10;1.00
5779;DHT22;2916;49.798;10.022;2023-07-13T05:16:01;19.20;1.00
5779;DHT22;2916;49.798;10.022;2023-07-13T05:18:31;19.30;1.00
5779;DHT22;2916;49.798;10.022;2023-07-13T05:21:00;19.30;1.00
5779;DHT22;2916;49.798;10.022;2023-07-13T05:23:31;19.30;1.00
5779;DHT22;2916;49.798;10.022;2023-07-13T05:25:59;19.30;1.00
5779;DHT22;2916;49.798;10.022;2023-07-13T05:28:27;19.30;1.00
5779;DHT22;2916;49.798;10.022;2023-07-13T05:30:55;19.20;1.00
5779;DHT22;2916;49.798;10.022;2023-07-13T05:33:22;19.40;1.00
5779;DHT22;2916;49.798;10.022;2023-07-13T05:35:50;19.60;1.00
5779;DHT22;2916;49.798;10.022;2023-07-13T05:38:17;20.00;1.00
5779;DHT22;2916;49.798;10.022;2023-07-13T05:40:46;21.00;1.00
5779;DHT22;2916;49.798;10.022;2023-07-13T05:43:14;22.00;1.00
5779;DHT22;2916;49.798;10.022;2023-07-13T05:45:42;22.40;1.00
5779;DHT22;2916;49.798;10.022;2023-07-13T05:48:09;22.40;1.00
5779;DHT22;2916;49.798;10.022;2023-07-13T05:50:36;22.30;1.00
5779;DHT22;2916;49.798;10.022;2023-07-13T05:53:03;22.30;1.00
5779;DHT22;2916;49.798;10.022;2023-07-13T05:55:31;22.60;1.00
5779;DHT22;2916;49.798;10.022;2023-07-13T05:58:01;22.80;1.00
5779;DHT22;2916;49.798;10.022;2023-07-13T06:00:28;22.70;1.00
5779;DHT22;2916;49.798;10.022;2023-07-13T06:02:56;22.50;1.00
5779;DHT22;2916;49.798;10.022;2023-07-13T06:05:24;22.30;1.00
5779;DHT22;2916;49.798;10.022;2023-07-13T06:07:51;21.90;1.00
5779;DHT22;2916;49.798;10.022;2023-07-13T06:10:18;22.00;1.00
5779;DHT22;2916;49.798;10.022;2023-07-13T06:12:48;22.00;1.00
5779;DHT22;2916;49.798;10.022;2023-07-13T06:15:16;22.10;1.00
5779;DHT22;2916;49.798;10.022;2023-07-13T06:17:44;22.30;1.00
5779;DHT22;2916;49.798;10.022;2023-07-13T06:20:12;23.60;1.00
5779;DHT22;2916;49.798;10.022;2023-07-13T06:22:39;23.90;1.00
5779;DHT22;2916;49.798;10.022;2023-07-13T06:25:07;23.90;1.00
5779;DHT22;2916;49.798;10.022;2023-07-13T06:27:35;23.90;1.00
5779;DHT22;2916;49.798;10.022;2023-07-13T06:30:02;23.50;1.00
5779;DHT22;2916;49.798;10.022;2023-07-13T06:32:31;23.60;1.00
5779;DHT22;2916;49.798;10.022;2023-07-13T06:34:58;24.10;1.00
5779;DHT22;2916;49.798;10.022;2023-07-13T06:37:25;24.60;1.00
5779;DHT22;2916;49.798;10.022;2023-07-13T06:39:52;24.40;1.00
5779;DHT22;2916;49.798;10.022;2023-07-13T06:42:20;24.20;1.00
5779;DHT22;2916;49.798;10.022;2023-07-13T06:44:47;24.90;1.00
5779;DHT22;2916;49.798;10.022;2023-07-13T06:47:14;25.60;1.00
5779;DHT22;2916;49.798;10.022;2023-07-13T06:49:43;25.00;1.00
5779;DHT22;2916;49.798;10.022;2023-07-13T06:52:11;24.60;1.00
5779;DHT22;2916;49.798;10.022;2023-07-13T06:54:38;24.80;1.00
5779;DHT22;2916;49.798;10.022;2023-07-13T06:57:06;25.70;1.00
5779;DHT22;2916;49.798;10.022;2023-07-13T06:59:33;25.70;1.00
5779;DHT22;2916;49.798;10.022;2023-07-13T07:02:00;25.60;1.00
5779;DHT22;2916;49.798;10.022;2023-07-13T07:04:27;25.80;1.00
5779;DHT22;2916;49.798;10.022;2023-07-13T07:06:56;25.90;1.00
5779;DHT22;2916;49.798;10.022;2023-07-13T07:09:24;25.60;1.00
5779;DHT22;2916;49.798;10.022;2023-07-13T07:11:51;26.10;1.00
5779;DHT22;2916;49.798;10.022;2023-07-13T07:14:19;26.70;1.00
5779;DHT22;2916;49.798;10.022;2023-07-13T07:16:46;27.60;1.00
5779;DHT22;2916;49.798;10.022;2023-07-13T07:19:13;27.20;1.00
5779;DHT22;2916;49.798;10.022;2023-07-13T07:21:40;27.40;1.00
5779;DHT22;2916;49.798;10.022;2023-07-13T07:24:08;27.90;1.00
5779;DHT22;2916;49.798;10.022;2023-07-13T07:26:36;27.90;1.00
5779;DHT22;2916;49.798;10.022;2023-07-13T07:29:03;27.50;1.00
5779;DHT22;2916;49.798;10.022;2023-07-13T07:31:30;28.10;1.00
5779;DHT22;2916;49.798;10.022;2023-07-13T07:33:57;29.00;1.00
5779;DHT22;2916;49.798;10.022;2023-07-13T07:36:24;29.00;1.00
5779;DHT22;2916;49.798;10.022;2023-07-13T07:38:51;29.10;1.00
5779;DHT22;2916;49.798;10.022;2023-07-13T07:41:20;28.00;1.00
5779;DHT22;2916;49.798;10.022;2023-07-13T07:43:47;29.00;1.00
5779;DHT22;2916;49.798;10.022;2023-07-13T07:46:14;29.00;1.00
5779;DHT22;2916;49.798;10.022;2023-07-13T07:48:41;29.20;1.00
5779;DHT22;2916;49.798;10.022;2023-07-13T07:51:08;29.40;1.00
5779;DHT22;2916;49.798;10.022;2023-07-13T07:53:36;29.80;1.00
5779;DHT22;2916;49.798;10.022;2023-07-13T07:56:03;29.90;1.00
5779;DHT22;2916;49.798;10.022;2023-07-13T07:58:33;29.90;1.00
5779;DHT22;2916;49.798;10.022;2023-07-13T08:01:04;29.70;1.00
5779;DHT22;2916;49.798;10.022;2023-07-13T08:03:32;29.90;1.00
5779;DHT22;2916;49.798;10.022;2023-07-13T08:06:00;29.80;1.00
5779;DHT22;2916;49.798;10.022;2023-07-13T08:08:28;29.10;1.00
5779;DHT22;2916;49.798;10.022;2023-07-13T08:10:55;29.90;1.00
5779;DHT22;2916;49.798;10.022;2023-07-13T08:13:23;30.00;1.00
5779;DHT22;2916;49.798;10.022;2023-07-13T08:15:51;29.60;1.00
5779;DHT22;2916;49.798;10.022;2023-07-13T08:18:18;30.00;1.00
5779;DHT22;2916;49.798;10.022;2023-07-13T08:20:46;30.50;1.00
5779;DHT22;2916;49.798;10.022;2023-07-13T08:23:13;30.70;1.00
5779;DHT22;2916;49.798;10.022;2023-07-13T08:25:42;30.50;1.00
5779;DHT22;2916;49.798;10.022;2023-07-13T08:28:09;30.60;1.00
5779;DHT22;2916;49.798;10.022;2023-07-13T08:30:36;30.80;1.00
5779;DHT22;2916;49.798;10.022;2023-07-13T08:33:05;29.70;1.00
5779;DHT22;2916;49.798;10.022;2023-07-13T08:35:32;30.10;1.00
5779;DHT22;2916;49.798;10.022;2023-07-13T08:37:59;30.20;1.00
5779;DHT22;2916;49.798;10.022;2023-07-13T08:40:27;30.40;1.00
5779;DHT22;2916;49.798;10.022;2023-07-13T08:42:57;30.80;1.00
5779;DHT22;2916;49.798;10.022;2023-07-13T08:45:30;30.40;1.00
5779;DHT22;2916;49.798;10.022;2023-07-13T08:48:11;30.30;1.00
5779;DHT22;2916;49.798;10.022;2023-07-13T08:50:55;29.90;1.00
5779;DHT22;2916;49.798;10.022;2023-07-13T08:53:31;29.70;1.00
5779;DHT22;2916;49.798;10.022;2023-07-13T08:56:02;30.20;1.00
5779;DHT22;2916;49.798;10.022;2023-07-13T08:58:36;30.00;1.00
5779;DHT22;2916;49.798;10.022;2023-07-13T09:01:12;30.50;1.00
5779;DHT22;2916;49.798;10.022;2023-07-13T09:03:52;30.30;1.00
5779;DHT22;2916;49.798;10.022;2023-07-13T09:06:33;29.90;1.00
5779;DHT22;2916;49.798;10.022;2023-07-13T09:09:26;29.50;1.00
5779;DHT22;2916;49.798;10.022;2023-07-13T09:12:09;30.00;1.00
5779;DHT22;2916;49.798;10.022;2023-07-13T09:14:44;29.40;1.00
5779;DHT22;2916;49.798;10.022;2023-07-13T09:17:18;29.60;1.00
5779;DHT22;2916;49.798;10.022;2023-07-13T09:19:54;30.10;1.00
5779;DHT22;2916;49.798;10.022;2023-07-13T09:22:27;30.00;1.00
5779;DHT22;2916;49.798;10.022;2023-07-13T09:25:02;29.30;1.00
5779;DHT22;2916;49.798;10.022;2023-07-13T09:27:37;29.60;1.00
5779;DHT22;2916;49.798;10.022;2023-07-13T09:30:23;29.90;1.00
5779;DHT22;2916;49.798;10.022;2023-07-13T09:32:57;29.90;1.00
5779;DHT22;2916;49.798;10.022;2023-07-13T09:35:28;30.20;1.00
5779;DHT22;2916;49.798;10.022;2023-07-13T09:38:03;30.40;1.00
5779;DHT22;2916;49.798;10.022;2023-07-13T09:40:41;30.20;1.00
5779;DHT22;2916;49.798;10.022;2023-07-13T09:43:29;29.50;1.00
5779;DHT22;2916;49.798;10.022;2023-07-13T09:45:57;29.80;1.00
5779;DHT22;2916;49.798;10.022;2023-07-13T09:48:25;30.10;1.00
5779;DHT22;2916;49.798;10.022;2023-07-13T09:51:09;30.10;1.00
5779;DHT22;2916;49.798;10.022;2023-07-13T09:53:42;30.40;1.00
5779;DHT22;2916;49.798;10.022;2023-07-13T09:56:19;30.00;1.00
5779;DHT22;2916;49.798;10.022;2023-07-13T09:58:47;29.70;1.00
5779;DHT22;2916;49.798;10.022;2023-07-13T10:01:15;29.90;1.00
5779;DHT22;2916;49.798;10.022;2023-07-13T10:03:52;29.70;1.00
5779;DHT22;2916;49.798;10.022;2023-07-13T10:06:22;29.30;1.00
5779;DHT22;2916;49.798;10.022;2023-07-13T10:08:50;29.10;1.00
5779;DHT22;2916;49.798;10.022;2023-07-13T10:11:19;28.20;1.00
5779;DHT22;2916;49.798;10.022;2023-07-13T10:13:52;28.00;1.00
5779;DHT22;2916;49.798;10.022;2023-07-13T10:16:22;27.80;1.00
5779;DHT22;2916;49.798;10.022;2023-07-13T10:18:55;27.90;1.00
5779;DHT22;2916;49.798;10.022;2023-07-13T10:21:32;28.60;1.00
5779;DHT22;2916;49.798;10.022;2023-07-13T10:24:11;28.80;1.00
5779;DHT22;2916;49.798;10.022;2023-07-13T10:27:03;29.10;1.00
5779;DHT22;2916;49.798;10.022;2023-07-13T10:29:48;28.80;1.00
5779;DHT22;2916;49.798;10.022;2023-07-13T10:32:22;28.30;1.00
5779;DHT22;2916;49.798;10.022;2023-07-13T10:34:51;28.80;1.00
5779;DHT22;2916;49.798;10.022;2023-07-13T10:37:24;28.80;1.00
5779;DHT22;2916;49.798;10.022;2023-07-13T10:39:56;28.90;1.00
5779;DHT22;2916;49.798;10.022;2023-07-13T10:42:29;28.90;1.00
5779;DHT22;2916;49.798;10.022;2023-07-13T10:44:58;29.30;1.00
5779;DHT22;2916;49.798;10.022;2023-07-13T10:47:26;28.90;1.00
5779;DHT22;2916;49.798;10.022;2023-07-13T10:49:56;28.90;1.00
5779;DHT22;2916;49.798;10.022;2023-07-13T10:52:45;29.30;1.00
5779;DHT22;2916;49.798;10.022;2023-07-13T10:55:37;29.30;1.00
5779;DHT22;2916;49.798;10.022;2023-07-13T10:58:14;29.40;1.00
5779;DHT22;2916;49.798;10.022;2023-07-13T11:00:51;30.00;1.00
5779;DHT22;2916;49.798;10.022;2023-07-13T11:03:27;29.40;1.00
5779;DHT22;2916;49.798;10.022;2023-07-13T11:06:07;29.10;1.00
5779;DHT22;2916;49.798;10.022;2023-07-13T11:08:38;29.30;1.00
5779;DHT22;2916;49.798;10.022;2023-07-13T11:11:35;29.10;1.00
5779;DHT22;2916;49.798;10.022;2023-07-13T11:14:13;29.00;1.00
5779;DHT22;2916;49.798;10.022;2023-07-13T11:16:54;28.90;1.00
5779;DHT22;2916;49.798;10.022;2023-07-13T11:19:40;29.20;1.00
5779;DHT22;2916;49.798;10.022;2023-07-13T11:22:16;29.00;1.00
5779;DHT22;2916;49.798;10.022;2023-07-13T11:25:02;29.20;1.00
5779;DHT22;2916;49.798;10.022;2023-07-13T11:27:51;28.90;1.00
5779;DHT22;2916;49.798;10.022;2023-07-13T11:30:37;29.50;1.00
5779;DHT22;2916;49.798;10.022;2023-07-13T11:33:15;29.60;1.00
5779;DHT22;2916;49.798;10.022;2023-07-13T11:35:53;29.20;1.00
5779;DHT22;2916;49.798;10.022;2023-07-13T11:38:30;28.70;1.00
5779;DHT22;2916;49.798;10.022;2023-07-13T11:41:05;28.80;1.00
5779;DHT22;2916;49.798;10.022;2023-07-13T11:43:33;28.00;1.00
5779;DHT22;2916;49.798;10.022;2023-07-13T11:46:14;27.90;1.00
5779;DHT22;2916;49.798;10.022;2023-07-13T11:48:45;28.00;1.00
5779;DHT22;2916;49.798;10.022;2023-07-13T11:51:20;27.90;1.00
5779;DHT22;2916;49.798;10.022;2023-07-13T11:53:52;28.00;1.00
5779;DHT22;2916;49.798;10.022;2023-07-13T11:56:22;28.10;1.00
5779;DHT22;2916;49.798;10.022;2023-07-13T11:58:52;28.70;1.00
5779;DHT22;2916;49.798;10.022;2023-07-13T12:01:23;28.80;1.00
5779;DHT22;2916;49.798;10.022;2023-07-13T12:03:55;28.90;1.00
5779;DHT22;2916;49.798;10.022;2023-07-13T12:06:26;28.20;1.00
5779;DHT22;2916;49.798;10.022;2023-07-13T12:08:59;28.00;1.00
5779;DHT22;2916;49.798;10.022;2023-07-13T12:11:34;28.30;1.00
5779;DHT22;2916;49.798;10.022;2023-07-13T12:14:03;28.30;1.00
5779;DHT22;2916;49.798;10.022;2023-07-13T12:16:32;28.00;1.00
5779;DHT22;2916;49.798;10.022;2023-07-13T12:19:00;27.80;1.00
5779;DHT22;2916;49.798;10.022;2023-07-13T12:21:32;27.80;1.00
5779;DHT22;2916;49.798;10.022;2023-07-13T12:24:14;27.80;1.00
5779;DHT22;2916;49.798;10.022;2023-07-13T12:26:44;28.00;1.00
5779;DHT22;2916;49.798;10.022;2023-07-13T12:29:16;28.30;1.00
5779;DHT22;2916;49.798;10.022;2023-07-13T12:31:46;28.50;1.00
5779;DHT22;2916;49.798;10.022;2023-07-13T12:34:16;28.40;1.00
5779;DHT22;2916;49.798;10.022;2023-07-13T12:36:47;28.30;1.00
5779;DHT22;2916;49.798;10.022;2023-07-13T12:39:19;28.40;1.00
5779;DHT22;2916;49.798;10.022;2023-07-13T12:41:51;28.30;1.00
5779;DHT22;2916;49.798;10.022;2023-07-13T12:44:25;28.00;1.00
5779;DHT22;2916;49.798;10.022;2023-07-13T12:47:02;28.00;1.00
5779;DHT22;2916;49.798;10.022;2023-07-13T12:49:33;27.90;1.00
5779;DHT22;2916;49.798;10.022;2023-07-13T12:52:02;27.90;1.00
5779;DHT22;2916;49.798;10.022;2023-07-13T12:54:31;28.20;1.00
5779;DHT22;2916;49.798;10.022;2023-07-13T12:57:00;28.50;1.00
5779;DHT22;2916;49.798;10.022;2023-07-13T12:59:31;28.30;1.00
5779;DHT22;2916;49.798;10.022;2023-07-13T13:02:18;28.20;1.00
5779;DHT22;2916;49.798;10.022;2023-07-13T13:04:53;28.10;1.00
5779;DHT22;2916;49.798;10.022;2023-07-13T13:07:22;28.50;1.00
5779;DHT22;2916;49.798;10.022;2023-07-13T13:09:50;28.70;1.00
5779;DHT22;2916;49.798;10.022;2023-07-13T13:12:20;28.00;1.00
5779;DHT22;2916;49.798;10.022;2023-07-13T13:14:47;27.90;1.00
5779;DHT22;2916;49.798;10.022;2023-07-13T13:17:19;27.80;1.00
5779;DHT22;2916;49.798;10.022;2023-07-13T13:19:49;27.80;1.00
5779;DHT22;2916;49.798;10.022;2023-07-13T13:22:18;27.70;1.00
5779;DHT22;2916;49.798;10.022;2023-07-13T13:24:46;27.70;1.00
5779;DHT22;2916;49.798;10.022;2023-07-13T13:27:16;27.50;1.00
5779;DHT22;2916;49.798;10.022;2023-07-13T13:29:46;27.40;1.00
5779;DHT22;2916;49.798;10.022;2023-07-13T13:32:19;27.60;1.00
5779;DHT22;2916;49.798;10.022;2023-07-13T13:34:46;27.40;1.00
5779;DHT22;2916;49.798;10.022;2023-07-13T13:37:18;27.70;1.00
5779;DHT22;2916;49.798;10.022;2023-07-13T13:39:47;27.60;1.00
5779;DHT22;2916;49.798;10.022;2023-07-13T13:42:15;27.90;1.00
5779;DHT22;2916;49.798;10.022;2023-07-13T13:44:42;27.90;1.00
5779;DHT22;2916;49.798;10.022;2023-07-13T13:47:21;28.00;1.00
5779;DHT22;2916;49.798;10.022;2023-07-13T13:49:56;27.90;1.00
5779;DHT22;2916;49.798;10.022;2023-07-13T13:52:24;28.10;1.00
5779;DHT22;2916;49.798;10.022;2023-07-13T13:54:52;28.30;1.00
5779;DHT22;2916;49.798;10.022;2023-07-13T13:57:22;28.00;1.00
5779;DHT22;2916;49.798;10.022;2023-07-13T13:59:50;27.70;1.00
5779;DHT22;2916;49.798;10.022;2023-07-13T14:02:25;27.80;1.00
5779;DHT22;2916;49.798;10.022;2023-07-13T14:04:56;27.40;1.00
5779;DHT22;2916;49.798;10.022;2023-07-13T14:07:25;27.20;1.00
5779;DHT22;2916;49.798;10.022;2023-07-13T14:09:54;27.30;1.00
5779;DHT22;2916;49.798;10.022;2023-07-13T14:12:24;27.50;1.00
5779;DHT22;2916;49.798;10.022;2023-07-13T14:14:54;27.60;1.00
5779;DHT22;2916;49.798;10.022;2023-07-13T14:17:25;27.80;1.00
5779;DHT22;2916;49.798;10.022;2023-07-13T14:19:54;28.00;1.00
5779;DHT22;2916;49.798;10.022;2023-07-13T14:22:23;28.00;1.00
5779;DHT22;2916;49.798;10.022;2023-07-13T14:24:52;28.00;1.00
5779;DHT22;2916;49.798;10.022;2023-07-13T14:27:20;28.00;1.00
5779;DHT22;2916;49.798;10.022;2023-07-13T14:29:47;28.00;1.00
5779;DHT22;2916;49.798;10.022;2023-07-13T14:32:14;27.80;1.00
5779;DHT22;2916;49.798;10.022;2023-07-13T14:34:43;27.80;1.00
5779;DHT22;2916;49.798;10.022;2023-07-13T14:37:13;27.80;1.00
5779;DHT22;2916;49.798;10.022;2023-07-13T14:39:44;27.40;1.00
5779;DHT22;2916;49.798;10.022;2023-07-13T14:42:13;27.30;1.00
5779;DHT22;2916;49.798;10.022;2023-07-13T14:44:40;27.20;1.00
5779;DHT22;2916;49.798;10.022;2023-07-13T14:47:07;27.30;1.00
5779;DHT22;2916;49.798;10.022;2023-07-13T14:49:38;27.30;1.00
5779;DHT22;2916;49.798;10.022;2023-07-13T14:52:12;27.40;1.00
5779;DHT22;2916;49.798;10.022;2023-07-13T14:54:41;27.50;1.00
5779;DHT22;2916;49.798;10.022;2023-07-13T14:57:10;27.70;1.00
5779;DHT22;2916;49.798;10.022;2023-07-13T14:59:38;27.60;1.00
5779;DHT22;2916;49.798;10.022;2023-07-13T15:02:15;27.90;1.00
5779;DHT22;2916;49.798;10.022;2023-07-13T15:04:43;28.20;1.00
5779;DHT22;2916;49.798;10.022;2023-07-13T15:07:12;27.60;1.00
5779;DHT22;2916;49.798;10.022;2023-07-13T15:09:41;27.70;1.00
5779;DHT22;2916;49.798;10.022;2023-07-13T15:12:08;27.70;1.00
5779;DHT22;2916;49.798;10.022;2023-07-13T15:14:36;27.80;1.00
5779;DHT22;2916;49.798;10.022;2023-07-13T15:17:04;27.80;1.00
5779;DHT22;2916;49.798;10.022;2023-07-13T15:19:33;27.90;1.00
5779;DHT22;2916;49.798;10.022;2023-07-13T15:22:01;27.80;1.00
5779;DHT22;2916;49.798;10.022;2023-07-13T15:24:30;27.80;1.00
5779;DHT22;2916;49.798;10.022;2023-07-13T15:26:58;27.90;1.00
5779;DHT22;2916;49.798;10.022;2023-07-13T15:29:28;28.00;1.00
5779;DHT22;2916;49.798;10.022;2023-07-13T15:31:55;27.90;1.00
5779;DHT22;2916;49.798;10.022;2023-07-13T15:34:25;27.80;1.00
5779;DHT22;2916;49.798;10.022;2023-07-13T15:36:52;27.80;1.00
5779;DHT22;2916;49.798;10.022;2023-07-13T15:39:20;28.10;1.00
5779;DHT22;2916;49.798;10.022;2023-07-13T15:41:48;28.10;1.00
5779;DHT22;2916;49.798;10.022;2023-07-13T15:44:28;27.70;1.00
5779;DHT22;2916;49.798;10.022;2023-07-13T15:46:56;27.50;1.00
5779;DHT22;2916;49.798;10.022;2023-07-13T15:49:26;27.30;1.00
5779;DHT22;2916;49.798;10.022;2023-07-13T15:51:53;27.20;1.00
5779;DHT22;2916;49.798;10.022;2023-07-13T15:54:20;27.10;1.00
5779;DHT22;2916;49.798;10.022;2023-07-13T15:56:52;26.80;1.00
5779;DHT22;2916;49.798;10.022;2023-07-13T15:59:21;26.80;1.00
5779;DHT22;2916;49.798;10.022;2023-07-13T16:01:49;26.80;1.00
5779;DHT22;2916;49.798;10.022;2023-07-13T16:04:16;26.80;1.00
5779;DHT22;2916;49.798;10.022;2023-07-13T16:06:45;26.70;1.00
5779;DHT22;2916;49.798;10.022;2023-07-13T16:09:18;26.70;1.00
5779;DHT22;2916;49.798;10.022;2023-07-13T16:11:49;26.60;1.00
5779;DHT22;2916;49.798;10.022;2023-07-13T16:14:17;26.50;1.00
5779;DHT22;2916;49.798;10.022;2023-07-13T16:16:46;26.40;1.00
5779;DHT22;2916;49.798;10.022;2023-07-13T16:19:14;26.30;1.00
5779;DHT22;2916;49.798;10.022;2023-07-13T16:21:45;26.40;1.00